Aeroporto :
LOGIN :

Iscrizione | Disclaimer

   EN    FR    IT 

 










Sommario :    VFR   VFR Marginale   IFR   IFR Intensivo   IFR Molto Intensivo
Visibilità : 
Base nubi : 
>= 8 km
>= 3000ft
5 / 8 km
1000 / 3000 ft
1500m / 5 km
500 / 1000 ft
800 / 1500m
200 / 500 ft
< 800m
< 200 ft
Simboli :   Temporali  Nebbia  Neve Forte  Precipitazioni Forti  Vento > 20 kt
SIGMETs :   Varie  Temporali  Ghiacco  Turbolenza  Onda orograficha  Ceneri Vulcaniche






- Altitudine del aeroporto : 779 ft
- Codice IATA : CMF


LFLB - Chambery / Aix-Les-Bains

ULTIMO METAR :
  • 280600Z AUTO 35010KT 9999 BKN032 OVC038 10/05 Q1016 NOSIG

METARs OBSOLETI :
  • 280530Z AUTO 35010KT 9999 OVC032 10/05 Q1015 NOSIG
  • 280500Z AUTO 36008KT 9999 OVC032 10/05 Q1015 NOSIG
  • 280430Z AUTO 35009KT 9999 OVC032 10/05 Q1015 NOSIG
  • 280400Z AUTO 35006KT 9999 OVC031 10/05 Q1014 NOSIG
  • 280330Z AUTO 35008KT 9999 OVC032 10/05 Q1014 NOSIG
  • 280300Z AUTO 01007KT 9999 OVC032 10/05 Q1014 NOSIG
  • 280230Z AUTO 01008KT 9999 OVC031 10/05 Q1014
  • 280200Z AUTO 36008KT 9999 OVC031 10/05 Q1014
  • 280130Z AUTO 36011KT 9999 OVC032 10/05 Q1013

TAF TAF LFLB
Valido dal 28 a 03 ore il 29 a 03 ore UTC


280200Z 2803/2903 36010KT 9999 BKN030



MetMap, La meteo Aeronautica in un colpo d'occhio ! - Copyright ORBIFLY Dicembre 2007 - Disclaimer

ORBIFLY MET'MAP TEAM :

Programmazione e sviluppo : Alexandra Zaïnal
Concezione : Baudouin d'Aumeries
Supporto tecnico e logistico : Manuel Goepfert
Aiuto : Marc-Olivier Méhu
Aiuto per la traduzione : Arnaldo La Scala




FONTI E CREDITI :

   NOAA